createdAt,value
2023-04-19T00:02:59.708Z,7.07
2023-04-19T00:07:03.583Z,8.35
2023-04-19T00:11:07.677Z,8.93
2023-04-19T00:15:11.752Z,7.20
2023-04-19T00:19:17.232Z,7.43
2023-04-19T00:23:20.396Z,7.85
2023-04-19T00:27:24.396Z,7.63
2023-04-19T00:31:27.798Z,7.82
2023-04-19T00:35:34.906Z,8.10
2023-04-19T00:39:38.323Z,7.68
2023-04-19T00:43:42.189Z,7.30
2023-04-19T00:47:45.423Z,7.18
2023-04-19T00:51:52.087Z,6.88
2023-04-19T00:55:57.241Z,7.03
2023-04-19T01:00:00.882Z,7.30
2023-04-19T01:04:06.679Z,6.85
2023-04-19T01:08:12.178Z,7.38
2023-04-19T01:12:15.541Z,7.47
2023-04-19T01:16:20.551Z,8.55
2023-04-19T01:20:24.075Z,7.93
2023-04-19T01:24:29.385Z,7.82
2023-04-19T01:28:32.563Z,9.43
2023-04-19T01:32:36.289Z,8.50
2023-04-19T01:36:39.618Z,8.43
2023-04-19T01:40:45.196Z,9.20
2023-04-19T01:44:48.527Z,8.95
2023-04-19T01:48:53.634Z,8.10
2023-04-19T01:52:57.209Z,7.75
2023-04-19T01:57:03.080Z,8.45
2023-04-19T02:01:06.264Z,9.70
2023-04-19T02:05:10.936Z,9.02
2023-04-19T02:09:14.210Z,7.55
2023-04-19T02:13:21.373Z,8.93
2023-04-19T02:17:25.892Z,8.32
2023-04-19T02:21:29.490Z,9.18
2023-04-19T02:25:33.464Z,8.20
2023-04-19T02:29:39.024Z,9.38
2023-04-19T02:33:42.540Z,8.23
2023-04-19T02:37:46.933Z,9.23
2023-04-19T02:41:50.482Z,9.48
2023-04-19T02:45:55.701Z,8.52
2023-04-19T02:49:58.968Z,9.10
2023-04-19T02:54:02.468Z,8.95
2023-04-19T02:58:06.403Z,8.27
2023-04-19T03:02:11.494Z,8.88
2023-04-19T03:06:16.544Z,7.57
2023-04-19T03:10:19.943Z,7.85
2023-04-19T03:14:23.878Z,8.02
2023-04-19T03:18:29.990Z,7.97
2023-04-19T03:22:35.206Z,9.60
2023-04-19T03:26:38.490Z,9.65
2023-04-19T03:30:42.220Z,8.57
2023-04-19T03:34:47.341Z,7.95
2023-04-19T03:38:50.643Z,9.85
2023-04-19T03:42:54.059Z,9.20
2023-04-19T03:46:57.934Z,10.23
2023-04-19T03:51:02.759Z,8.68
2023-04-19T03:55:07.124Z,9.57
2023-04-19T03:59:11.263Z,10.98
2023-04-19T04:03:15.147Z,10.85
2023-04-19T04:07:20.231Z,8.95
2023-04-19T04:11:23.947Z,9.27
2023-04-19T04:15:27.312Z,10.02
2023-04-19T04:19:31.055Z,9.13
2023-04-19T04:23:36.006Z,11.00
2023-04-19T04:27:39.957Z,9.98
2023-04-19T04:31:43.730Z,10.10
2023-04-19T04:35:48.622Z,10.80
2023-04-19T04:39:53.681Z,11.05
2023-04-19T04:44:11.389Z,8.93
2023-04-19T04:48:16.602Z,8.80
2023-04-19T04:52:20.205Z,11.07
2023-04-19T04:56:26.429Z,7.05
2023-04-19T05:00:30.147Z,10.30
2023-04-19T05:04:33.145Z,9.23
2023-04-19T05:08:37.011Z,9.75
2023-04-19T05:12:42.763Z,9.40
2023-04-19T05:16:46.970Z,11.15
2023-04-19T05:20:50.315Z,10.27
2023-04-19T05:24:53.474Z,9.95
2023-04-19T05:28:58.197Z,12.13
2023-04-19T05:33:02.075Z,10.75
2023-04-19T05:37:05.525Z,12.88
2023-04-19T05:41:08.816Z,10.98
2023-04-19T05:45:16.029Z,12.93
2023-04-19T05:49:19.382Z,11.00
2023-04-19T05:53:22.569Z,12.65
2023-04-19T05:57:26.373Z,12.20
2023-04-19T06:01:31.296Z,10.52
2023-04-19T06:05:35.213Z,12.25
2023-04-19T06:09:38.460Z,11.77
2023-04-19T06:13:42.284Z,12.40
2023-04-19T06:17:47.478Z,10.27
2023-04-19T06:21:51.863Z,10.40
2023-04-19T06:25:54.925Z,11.20
2023-04-19T06:29:58.459Z,11.43
2023-04-19T06:34:03.265Z,12.20
2023-04-19T06:38:06.843Z,11.68
2023-04-19T06:42:10.329Z,10.80
2023-04-19T06:46:14.402Z,11.27
2023-04-19T06:50:19.825Z,12.23
2023-04-19T06:54:23.258Z,11.40
2023-04-19T06:58:27.331Z,11.93
2023-04-19T07:02:30.906Z,10.57
2023-04-19T07:06:35.730Z,10.82
2023-04-19T07:10:39.151Z,11.18
2023-04-19T07:14:42.445Z,11.18
2023-04-19T07:18:46.238Z,11.60
2023-04-19T07:22:51.177Z,11.25
2023-04-19T07:26:54.674Z,11.70
2023-04-19T07:30:57.778Z,12.80
2023-04-19T07:35:01.406Z,11.00
2023-04-19T07:39:06.326Z,11.88
2023-04-19T07:43:10.442Z,10.38
2023-04-19T07:47:13.984Z,11.48
2023-04-19T07:51:20.100Z,11.88
2023-04-19T07:55:25.061Z,10.75
2023-04-19T07:59:28.679Z,10.88
2023-04-19T08:03:32.451Z,12.60
2023-04-19T08:07:36.329Z,10.20
2023-04-19T08:11:40.620Z,11.15
2023-04-19T08:19:51.198Z,12.43
2023-04-19T08:23:55.084Z,12.88
2023-04-19T08:27:59.502Z,11.90
2023-04-19T08:32:03.351Z,12.05
2023-04-19T08:36:07.340Z,12.10
2023-04-19T08:40:12.080Z,12.05
2023-04-19T08:44:32.552Z,12.32
2023-04-19T08:48:39.658Z,11.02
2023-04-19T08:52:53.992Z,12.45
2023-04-19T08:57:01.590Z,11.35
2023-04-19T09:01:17.095Z,13.32
2023-04-19T09:05:30.318Z,12.63
2023-04-19T09:09:40.696Z,12.50
2023-04-19T09:18:05.147Z,13.95
2023-04-19T09:22:15.708Z,13.75
2023-04-19T09:26:23.507Z,11.27
2023-04-19T09:30:32.363Z,12.43
2023-04-19T09:34:53.816Z,12.07
2023-04-19T09:38:57.181Z,13.32
2023-04-19T09:43:17.486Z,10.95
2023-04-19T09:47:25.752Z,10.85
2023-04-19T09:51:42.155Z,10.90
2023-04-19T09:55:57.779Z,11.85
2023-04-19T10:00:08.516Z,10.55
2023-04-19T10:04:25.875Z,11.73
2023-04-19T10:08:39.842Z,13.20
2023-04-19T10:12:59.194Z,11.70
2023-04-19T10:17:06.749Z,12.57
2023-04-19T10:21:13.097Z,12.30
2023-04-19T10:25:18.566Z,11.77
2023-04-19T10:30:00.909Z,11.85
2023-04-19T10:34:04.320Z,8.33
2023-04-19T10:38:10.534Z,6.20
2023-04-19T10:42:15.009Z,5.80
2023-04-19T10:46:38.884Z,2.88
2023-04-19T10:51:00.122Z,3.45
2023-04-19T10:55:05.737Z,3.25
2023-04-19T10:59:23.611Z,3.92
2023-04-19T11:03:54.565Z,3.80
2023-04-19T11:07:58.958Z,3.08
2023-04-19T11:12:04.215Z,2.78
2023-04-19T11:16:11.771Z,2.85
2023-04-19T11:20:15.502Z,2.28
2023-04-19T11:24:21.246Z,2.28
2023-04-19T11:28:24.738Z,2.05
2023-04-19T11:32:30.374Z,2.92
2023-04-19T11:36:34.168Z,2.70
2023-04-19T11:40:37.980Z,3.03
2023-04-19T11:44:41.551Z,4.00
2023-04-19T11:48:55.251Z,3.50
2023-04-19T11:52:59.790Z,3.65
2023-04-19T11:57:05.097Z,3.55
2023-04-19T12:01:10.199Z,3.90
2023-04-19T12:05:17.314Z,3.65
2023-04-19T12:09:24.242Z,2.80
2023-04-19T12:13:28.381Z,3.42
2023-04-19T12:17:31.551Z,2.60
2023-04-19T12:21:37.006Z,2.95
2023-04-19T12:25:40.628Z,2.83
2023-04-19T12:29:44.752Z,2.90
2023-04-19T12:33:47.801Z,3.20
2023-04-19T12:37:54.390Z,3.03
2023-04-19T12:41:58.101Z,2.95
2023-04-19T12:46:01.910Z,2.42
2023-04-19T12:50:06.126Z,2.80
2023-04-19T12:54:11.270Z,2.60
2023-04-19T12:58:14.592Z,3.10
2023-04-19T13:02:18.186Z,3.20
2023-04-19T13:06:21.784Z,3.65
2023-04-19T13:10:26.809Z,3.67
2023-04-19T13:14:31.085Z,4.68
2023-04-19T13:18:34.374Z,4.00
2023-04-19T13:22:37.747Z,3.13
2023-04-19T13:26:43.002Z,2.15
2023-04-19T13:30:46.668Z,1.33
2023-04-19T13:34:50.306Z,0.93
2023-04-19T13:38:53.381Z,1.05
2023-04-19T13:42:58.654Z,1.20
2023-04-19T13:47:03.715Z,1.13
2023-04-19T13:51:08.481Z,1.60
2023-04-19T13:55:11.951Z,1.95
2023-04-19T13:59:17.114Z,2.10
2023-04-19T14:03:20.944Z,2.30
2023-04-19T14:07:33.099Z,1.90
2023-04-19T14:11:38.355Z,2.13
2023-04-19T14:15:43.485Z,2.30
2023-04-19T14:19:46.699Z,2.38
2023-04-19T14:23:50.074Z,3.05
2023-04-19T14:27:53.958Z,2.42
2023-04-19T14:32:05.066Z,2.03
2023-04-19T14:36:14.198Z,2.63
2023-04-19T14:40:18.803Z,1.70
2023-04-19T14:44:22.364Z,2.70
2023-04-19T14:48:27.394Z,3.22
2023-04-19T14:52:31.087Z,10.95
2023-04-19T14:56:34.214Z,5.15
2023-04-19T15:00:37.820Z,3.17
2023-04-19T15:04:45.154Z,2.33
2023-04-19T15:08:49.100Z,1.70
2023-04-19T15:12:52.685Z,1.60
2023-04-19T15:16:56.318Z,2.45
2023-04-19T15:21:02.040Z,2.50
2023-04-19T15:25:06.145Z,2.72
2023-04-19T15:29:10.877Z,2.80
2023-04-19T15:33:14.307Z,2.65
2023-04-19T15:37:19.981Z,2.15
2023-04-19T15:41:23.575Z,2.40
2023-04-19T15:45:26.736Z,2.67
2023-04-19T15:49:32.272Z,1.90
2023-04-19T15:53:37.261Z,2.30
2023-04-19T15:57:40.974Z,2.33
2023-04-19T16:01:44.058Z,2.25
2023-04-19T16:05:50.878Z,1.98
2023-04-19T16:09:56.234Z,1.92
2023-04-19T16:13:59.283Z,2.00
2023-04-19T16:18:02.800Z,2.40
2023-04-19T16:22:07.248Z,3.15
2023-04-19T16:26:11.996Z,1.88
2023-04-19T16:30:16.448Z,1.73
2023-04-19T16:34:22.148Z,2.45
2023-04-19T16:38:25.873Z,2.25
2023-04-19T16:42:31.153Z,2.13
2023-04-19T16:46:34.277Z,2.15
2023-04-19T16:50:38.372Z,2.83
2023-04-19T16:54:43.648Z,2.67
2023-04-19T16:58:50.721Z,2.50
2023-04-19T17:02:57.035Z,1.95
2023-04-19T17:07:00.649Z,2.75
2023-04-19T17:11:03.793Z,2.55
2023-04-19T17:15:09.925Z,3.08
2023-04-19T17:19:13.217Z,3.15
2023-04-19T17:23:16.395Z,2.05
2023-04-19T17:27:19.513Z,2.63
2023-04-19T17:31:24.165Z,2.53
2023-04-19T17:35:27.612Z,3.00
2023-04-19T17:39:31.224Z,2.75
2023-04-19T17:43:34.750Z,2.55
2023-04-19T17:47:40.139Z,2.33
2023-04-19T17:51:43.919Z,2.95
2023-04-19T17:55:47.210Z,3.03
2023-04-19T17:59:50.631Z,4.00
2023-04-19T18:03:55.408Z,3.28
2023-04-19T18:08:01.224Z,3.17
2023-04-19T18:12:04.651Z,2.95
2023-04-19T18:16:07.960Z,2.72
2023-04-19T18:20:14.461Z,2.90
2023-04-19T18:24:17.877Z,4.32
2023-04-19T18:28:21.645Z,3.65
2023-04-19T18:32:29.223Z,2.90
2023-04-19T18:36:33.587Z,2.70
2023-04-19T18:40:38.619Z,3.45
2023-04-19T18:48:48.746Z,4.07
2023-04-19T18:52:53.135Z,3.70
2023-04-19T18:57:21.778Z,3.80
2023-04-19T19:01:21.067Z,3.58
2023-04-19T19:05:24.444Z,2.47
2023-04-19T19:09:29.246Z,2.58
2023-04-19T19:13:32.513Z,3.08
2023-04-19T19:17:36.410Z,2.85
2023-04-19T19:21:41.694Z,3.45
2023-04-19T19:25:51.873Z,2.38
2023-04-19T19:29:58.808Z,2.53
2023-04-19T19:34:22.692Z,3.72
2023-04-19T19:38:27.458Z,2.63
2023-04-19T19:42:34.158Z,3.58
2023-04-19T19:46:37.811Z,2.22
2023-04-19T19:54:52.549Z,3.60
2023-04-19T19:58:58.420Z,2.78
2023-04-19T20:03:02.224Z,2.10
2023-04-19T20:11:14.015Z,2.65
2023-04-19T20:15:19.302Z,3.05
2023-04-19T20:19:22.913Z,2.63
2023-04-19T20:23:28.912Z,3.28
2023-04-19T20:27:38.260Z,3.45
2023-04-19T20:31:44.446Z,3.38
2023-04-19T20:35:56.972Z,2.63
2023-04-19T20:44:05.516Z,2.75
2023-04-19T20:48:10.935Z,3.15
2023-04-19T20:52:14.479Z,4.53
2023-04-19T20:56:18.323Z,5.13
2023-04-19T21:00:22.312Z,4.80
2023-04-19T21:04:27.976Z,5.05
2023-04-19T21:08:31.235Z,5.10
2023-04-19T21:12:35.277Z,4.10
2023-04-19T21:16:40.795Z,3.92
2023-04-19T21:20:45.394Z,3.85
2023-04-19T21:24:48.501Z,4.57
2023-04-19T21:28:53.002Z,3.72
2023-04-19T21:32:56.705Z,4.70
2023-04-19T21:37:01.551Z,3.80
2023-04-19T21:41:05.299Z,4.57
2023-04-19T21:45:09.962Z,4.22
2023-04-19T21:49:15.441Z,4.38
2023-04-19T21:53:20.195Z,4.38
2023-04-19T21:57:25.361Z,5.05
2023-04-19T22:01:29.054Z,3.92
2023-04-19T22:05:32.995Z,4.45
2023-04-19T22:09:37.551Z,5.43
2023-04-19T22:13:41.586Z,5.88
2023-04-19T22:17:46.262Z,4.80
2023-04-19T22:21:50.073Z,6.10
2023-04-19T22:25:54.749Z,4.85
2023-04-19T22:29:58.389Z,5.25
2023-04-19T22:34:01.704Z,6.45
2023-04-19T22:38:05.177Z,6.18
2023-04-19T22:42:10.318Z,5.45
2023-04-19T22:46:14.092Z,6.78
2023-04-19T22:50:18.283Z,6.18
2023-04-19T22:54:21.871Z,5.70
2023-04-19T22:58:26.414Z,7.32
2023-04-19T23:02:29.771Z,8.07
2023-04-19T23:06:34.626Z,7.15
2023-04-19T23:10:39.149Z,7.80
2023-04-19T23:14:44.011Z,6.57
2023-04-19T23:18:47.310Z,8.35
2023-04-19T23:22:51.082Z,8.43
2023-04-19T23:26:54.493Z,7.65
2023-04-19T23:30:59.722Z,8.05
2023-04-19T23:35:03.210Z,9.18
2023-04-19T23:39:08.704Z,7.68
2023-04-19T23:43:11.844Z,7.88
2023-04-19T23:47:17.383Z,8.68
2023-04-19T23:51:20.584Z,7.65
2023-04-19T23:55:24.693Z,8.98
2023-04-19T23:59:28.192Z,6.95
